Terminal Aerodrome Forecast
Issued by NWS Miami, FL

Home | Current Version | Previous Version | Text Only | Print | Product List | Glossary On
Versions: 1 2 3 4 5 6 7 8 9 10 11 12 13 14 15 16 17 18 19 20 21 22 23 24 25 26 27 28 29 30 31 32 33 34 35 36 37 38 39 40 41 42 43 44 45 46
000
FTUS42 KMFL 020901 AAQ
TAFFLL
TAF AMD
KFLL 020901Z 0209/0312 10009KT P6SM SCT025 BKN250
     FM021400 09013KT P6SM VCSH SCT025 BKN050
      TEMPO 0214/0218 BKN025
     FM022100 09015KT P6SM VCSH BKN025
     FM030000 09013KT P6SM SCT020 BKN025=

USA.gov is the U.S. government's official web portal to all federal, state and local government web resources and services.